Time;durP1;ratioP1;P1;durP2;ratioP2;P2;SDS_P1;SDS_P2;PMS_P1;PMS_P2;Temp;Humidity;BMP_temperature;BMP_pressure;BME280_temperature;BME280_humidity;BME280_pressure;Samples;Min_cycle;Max_cycle;Signal;HPM_P1;HPM_P2
2021/12/18 00:01:14;;;;;;;4.63;2.83;;;;;15.20;103897.00;;;;5028513;28;20192;-80
2021/12/18 00:03:42;;;;;;;5.10;3.22;;;;;15.30;103898.00;;;;5027732;28;20224;-80
2021/12/18 00:06:09;;;;;;;4.30;3.33;;;;;15.30;103889.00;;;;5025520;28;20211;-80
2021/12/18 00:08:37;;;;;;;4.35;2.55;;;;;15.30;103890.00;;;;5027440;28;20247;-80
2021/12/18 00:11:04;;;;;;;5.30;3.53;;;;;15.30;103884.00;;;;5028378;28;20192;-80
2021/12/18 00:13:33;;;;;;;5.43;3.20;;;;;15.30;103893.00;;;;5018695;28;20399;-80
2021/12/18 00:16:01;;;;;;;4.68;3.00;;;;;15.30;103892.00;;;;5028527;28;20192;-80
2021/12/18 00:18:30;;;;;;;5.13;3.30;;;;;15.30;103882.00;;;;5027756;28;20192;-80
2021/12/18 00:20:58;;;;;;;4.97;2.92;;;;;15.30;103883.00;;;;5028907;28;20251;-80
2021/12/18 00:23:25;;;;;;;5.28;3.42;;;;;15.30;103879.00;;;;5027929;28;20234;-80
2021/12/18 00:25:53;;;;;;;4.80;3.22;;;;;15.30;103882.00;;;;5028425;28;20659;-80
2021/12/18 00:28:20;;;;;;;6.38;3.30;;;;;15.30;103878.00;;;;5027864;28;20217;-80
2021/12/18 00:30:49;;;;;;;4.75;2.97;;;;;15.30;103870.00;;;;5026383;28;20207;-80
2021/12/18 00:33:16;;;;;;;4.13;2.83;;;;;15.30;103870.00;;;;5027986;28;20226;-80
2021/12/18 00:35:44;;;;;;;4.35;2.72;;;;;15.30;103871.00;;;;5026657;28;20211;-80
2021/12/18 00:38:11;;;;;;;4.07;2.95;;;;;15.30;103874.00;;;;5027668;28;20670;-80
2021/12/18 00:40:48;;;;;;;4.93;2.95;;;;;15.30;103870.00;;;;5027801;28;20196;-80
2021/12/18 00:43:27;;;;;;;3.83;2.67;;;;;15.30;103869.00;;;;5028105;28;20733;-81
2021/12/18 00:45:56;;;;;;;3.85;2.58;;;;;15.30;103864.00;;;;5027714;28;20210;-80
2021/12/18 00:48:23;;;;;;;5.07;3.28;;;;;15.30;103869.00;;;;5020889;28;20256;-81
2021/12/18 00:50:51;;;;;;;5.25;2.97;;;;;15.30;103867.00;;;;5027350;28;20188;-80
2021/12/18 00:53:19;;;;;;;4.05;2.63;;;;;15.30;103876.00;;;;5027316;28;20200;-81
2021/12/18 00:55:48;;;;;;;4.55;3.10;;;;;15.30;103868.00;;;;5027655;28;20193;-81
2021/12/18 00:58:15;;;;;;;4.95;3.47;;;;;15.30;103867.00;;;;5030197;28;20637;-81
2021/12/18 01:00:43;;;;;;;4.82;2.95;;;;;15.30;103865.00;;;;5031277;28;20197;-81
2021/12/18 01:03:17;;;;;;;5.38;3.35;;;;;15.30;103860.00;;;;5029889;28;20196;-81
2021/12/18 01:05:46;;;;;;;6.00;3.00;;;;;15.30;103859.00;;;;5030574;28;20694;-80
2021/12/18 01:08:14;;;;;;;4.13;2.90;;;;;15.30;103859.00;;;;5030392;28;20224;-80
2021/12/18 01:10:58;;;;;;;4.63;2.83;;;;;15.30;103868.00;;;;5031822;28;20219;-81
2021/12/18 01:13:31;;;;;;;4.30;2.80;;;;;15.30;103861.00;;;;5030647;28;20581;-80
2021/12/18 01:16:07;;;;;;;3.40;2.47;;;;;15.30;103867.00;;;;5030835;28;20228;-81
2021/12/18 01:24:06;;;;;;;3.45;2.40;;;;;15.30;103872.00;;;;5025986;28;20334;-80
2021/12/18 01:26:34;;;;;;;3.70;2.50;;;;;15.30;103872.00;;;;5030780;28;20187;-80
2021/12/18 01:29:01;;;;;;;3.65;2.40;;;;;15.30;103872.00;;;;5030759;28;20713;-80
2021/12/18 01:31:28;;;;;;;3.88;2.35;;;;;15.30;103869.00;;;;5031322;28;20200;-80
2021/12/18 01:33:57;;;;;;;3.85;2.38;;;;;15.30;103870.00;;;;5030856;28;20207;-81
2021/12/18 01:36:24;;;;;;;2.67;1.65;;;;;15.30;103868.00;;;;5029935;28;20204;-81
2021/12/18 01:38:51;;;;;;;3.20;1.95;;;;;15.30;103861.00;;;;5025973;28;20215;-81
2021/12/18 01:41:19;;;;;;;3.13;2.13;;;;;15.30;103865.00;;;;5031067;28;20196;-81
2021/12/18 01:44:33;;;;;;;3.90;2.63;;;;;15.30;103866.00;;;;5030928;28;20192;-81
2021/12/18 01:47:01;;;;;;;2.67;1.83;;;;;15.30;103865.00;;;;5030826;28;20196;-81
2021/12/18 01:52:20;;;;;;;2.47;1.42;;;;;15.20;103864.00;;;;5026127;28;20575;-80
2021/12/18 01:54:47;;;;;;;3.10;2.25;;;;;15.20;103863.00;;;;5029072;28;20198;-81
2021/12/18 01:57:15;;;;;;;3.20;1.95;;;;;15.20;103858.00;;;;5030145;28;20235;-81
2021/12/18 01:59:47;;;;;;;2.83;1.92;;;;;15.20;103862.00;;;;5029776;28;20200;-81
2021/12/18 02:02:15;;;;;;;2.90;1.80;;;;;15.20;103869.00;;;;5030277;28;20189;-81
2021/12/18 02:04:44;;;;;;;3.58;2.15;;;;;15.20;103856.00;;;;5030180;28;20196;-80
2021/12/18 02:07:11;;;;;;;2.55;1.63;;;;;15.20;103850.00;;;;5029642;28;20192;-80
2021/12/18 02:09:58;;;;;;;3.92;2.20;;;;;15.20;103852.00;;;;5029512;28;20220;-80
2021/12/18 02:12:34;;;;;;;2.60;1.45;;;;;15.20;103855.00;;;;5019315;28;20204;-80
2021/12/18 02:20:49;;;;;;;2.75;1.63;;;;;15.10;103853.00;;;;4987823;28;20703;-81
2021/12/18 02:23:17;;;;;;;3.33;1.90;;;;;15.20;103844.00;;;;5008609;28;20193;-80
2021/12/18 02:25:46;;;;;;;2.97;1.95;;;;;15.10;103852.00;;;;5030276;28;20216;-80
2021/12/18 02:28:17;;;;;;;3.55;1.98;;;;;15.10;103849.00;;;;5027578;28;20294;-80
2021/12/18 02:30:46;;;;;;;3.25;2.10;;;;;15.20;103846.00;;;;5025638;28;20196;-80
2021/12/18 02:33:13;;;;;;;3.55;1.80;;;;;15.10;103841.00;;;;5028614;28;20197;-80
2021/12/18 02:35:46;;;;;;;3.08;1.67;;;;;15.10;103844.00;;;;5027873;28;20200;-81
2021/12/18 02:38:20;;;;;;;3.03;1.88;;;;;15.10;103850.00;;;;5028629;28;20287;-80
2021/12/18 02:41:05;;;;;;;4.53;2.45;;;;;15.10;103849.00;;;;5029244;28;20275;-80
2021/12/18 02:43:35;;;;;;;5.22;1.65;;;;;15.10;103847.00;;;;5028524;28;20680;-80
2021/12/18 02:46:06;;;;;;;3.25;1.88;;;;;15.10;103847.00;;;;5021081;28;20208;-80
2021/12/18 02:48:35;;;;;;;3.22;1.90;;;;;15.10;103845.00;;;;5009970;28;20703;-81
2021/12/18 02:51:03;;;;;;;5.90;2.40;;;;;15.10;103836.00;;;;5028400;28;20207;-80
2021/12/18 02:53:32;;;;;;;3.33;2.00;;;;;15.10;103841.00;;;;5029275;28;20630;-80
2021/12/18 02:56:03;;;;;;;3.17;1.85;;;;;15.10;103840.00;;;;5029249;28;20211;-81
2021/12/18 02:58:31;;;;;;;4.18;2.53;;;;;15.10;103842.00;;;;5029435;28;20699;-81
2021/12/18 03:01:01;;;;;;;3.40;1.98;;;;;15.10;103839.00;;;;5029766;28;20196;-81
2021/12/18 03:03:32;;;;;;;3.28;1.95;;;;;15.10;103840.00;;;;5017494;28;20213;-80
2021/12/18 03:06:14;;;;;;;4.03;2.65;;;;;15.10;103833.00;;;;5019817;28;20566;-80
2021/12/18 03:08:50;;;;;;;4.55;2.10;;;;;15.10;103839.00;;;;5027931;28;20215;-80
2021/12/18 03:20:39;;;;;;;3.60;2.08;;;;;15.10;103829.00;;;;5014869;28;20718;-80
2021/12/18 03:23:05;;;;;;;3.95;2.30;;;;;15.10;103827.00;;;;5022510;28;20210;-80
2021/12/18 03:25:36;;;;;;;2.85;1.60;;;;;15.10;103825.00;;;;5028907;28;20203;-80
2021/12/18 03:28:05;;;;;;;3.28;1.85;;;;;15.10;103827.00;;;;5029435;28;20559;-80
2021/12/18 03:30:34;;;;;;;5.88;2.20;;;;;15.10;103827.00;;;;5028434;28;20204;-81
2021/12/18 03:33:02;;;;;;;5.07;2.40;;;;;15.10;103831.00;;;;5029212;28;20204;-80
2021/12/18 03:35:29;;;;;;;3.38;1.85;;;;;15.10;103827.00;;;;5026964;28;20196;-80
2021/12/18 03:37:57;;;;;;;3.60;2.20;;;;;15.10;103838.00;;;;5027817;28;20196;-80
2021/12/18 03:40:25;;;;;;;4.68;2.38;;;;;15.10;103837.00;;;;5027923;28;20729;-80
2021/12/18 03:42:54;;;;;;;4.28;2.20;;;;;15.10;103833.00;;;;5028607;28;20200;-80
2021/12/18 03:45:23;;;;;;;4.97;2.25;;;;;15.10;103838.00;;;;5027917;28;20196;-80
2021/12/18 03:47:51;;;;;;;3.95;2.35;;;;;15.00;103828.00;;;;5028419;28;20211;-80
2021/12/18 03:50:19;;;;;;;3.65;2.15;;;;;15.00;103831.00;;;;5025583;28;20227;-80
2021/12/18 03:52:47;;;;;;;3.22;2.17;;;;;15.00;103831.00;;;;5027609;28;20196;-81
2021/12/18 03:55:14;;;;;;;3.20;2.00;;;;;15.00;103832.00;;;;5027646;28;20292;-80
2021/12/18 03:57:42;;;;;;;3.22;1.58;;;;;15.00;103818.00;;;;5028084;28;20231;-80
2021/12/18 04:00:15;;;;;;;2.92;1.13;;;;;14.90;103826.00;;;;5027858;28;20184;-80
2021/12/18 04:02:43;;;;;;;3.33;1.83;;;;;14.90;103826.00;;;;5028449;28;20202;-80
2021/12/18 04:05:11;;;;;;;3.78;2.28;;;;;14.90;103824.00;;;;5024994;28;20208;-80
2021/12/18 04:07:42;;;;;;;3.22;1.83;;;;;14.90;103827.00;;;;5025881;28;20593;-80
2021/12/18 04:10:10;;;;;;;2.83;1.88;;;;;14.80;103818.00;;;;5026088;28;20309;-80
2021/12/18 04:12:38;;;;;;;3.20;1.98;;;;;14.80;103817.00;;;;5008638;28;20208;-81
2021/12/18 04:15:06;;;;;;;3.20;1.65;;;;;14.80;103817.00;;;;5019043;28;20224;-80
2021/12/18 04:17:35;;;;;;;4.03;1.85;;;;;14.80;103818.00;;;;5025737;28;20206;-79
2021/12/18 04:20:02;;;;;;;3.65;1.80;;;;;14.80;103820.00;;;;5021142;28;20211;-80
2021/12/18 04:22:30;;;;;;;4.45;2.17;;;;;14.80;103820.00;;;;5026343;28;20247;-81
2021/12/18 04:24:57;;;;;;;3.17;1.70;;;;;14.80;103829.00;;;;5027242;28;20193;-80
2021/12/18 04:27:24;;;;;;;4.32;2.17;;;;;14.80;103821.00;;;;5024982;28;20215;-80
2021/12/18 04:29:51;;;;;;;2.78;1.70;;;;;14.80;103820.00;;;;5010967;28;20227;-80
2021/12/18 04:32:19;;;;;;;3.10;1.70;;;;;14.80;103831.00;;;;5030345;28;20199;-81
2021/12/18 04:34:47;;;;;;;2.05;1.20;;;;;14.70;103831.00;;;;5031918;28;20200;-82
2021/12/18 04:37:15;;;;;;;2.28;1.13;;;;;14.70;103829.00;;;;5030471;28;20203;-82
2021/12/18 04:39:42;;;;;;;2.00;1.05;;;;;14.70;103827.00;;;;5032401;28;20200;-81
2021/12/18 04:42:09;;;;;;;2.30;1.23;;;;;14.70;103830.00;;;;5031918;28;20196;-81
2021/12/18 04:44:37;;;;;;;2.42;1.30;;;;;14.60;103832.00;;;;5027270;28;20201;-82
2021/12/18 04:47:04;;;;;;;1.88;1.08;;;;;14.60;103838.00;;;;5030990;28;20199;-81
2021/12/18 04:49:32;;;;;;;2.53;1.08;;;;;14.60;103838.00;;;;5030926;28;20250;-81
2021/12/18 04:52:02;;;;;;;1.70;0.98;;;;;14.60;103828.00;;;;5031712;28;20275;-81
2021/12/18 04:54:29;;;;;;;2.75;1.02;;;;;14.60;103831.00;;;;5031730;28;20254;-82
2021/12/18 04:56:56;;;;;;;2.58;1.10;;;;;14.60;103839.00;;;;5029112;28;20224;-81
2021/12/18 04:59:24;;;;;;;1.73;0.75;;;;;14.60;103842.00;;;;5030857;28;20196;-82
2021/12/18 05:01:52;;;;;;;1.75;0.93;;;;;14.60;103844.00;;;;5024932;28;21226;-82
2021/12/18 05:04:21;;;;;;;1.40;0.70;;;;;14.50;103843.00;;;;5019050;28;20192;-82
2021/12/18 05:06:51;;;;;;;1.13;0.65;;;;;14.60;103853.00;;;;5031050;28;20235;-82
2021/12/18 05:09:20;;;;;;;1.77;0.70;;;;;14.50;103851.00;;;;5031180;28;20216;-82
2021/12/18 05:11:48;;;;;;;0.80;0.47;;;;;14.60;103848.00;;;;5031037;28;20192;-82
2021/12/18 05:14:16;;;;;;;1.00;0.50;;;;;14.60;103849.00;;;;5031546;28;20192;-82
2021/12/18 05:16:43;;;;;;;0.85;0.50;;;;;14.50;103850.00;;;;5030915;28;20215;-82
2021/12/18 05:19:11;;;;;;;1.10;0.50;;;;;14.50;103857.00;;;;5022129;28;20208;-82
2021/12/18 05:21:38;;;;;;;0.90;0.40;;;;;14.50;103856.00;;;;5027558;28;20192;-82
2021/12/18 05:24:06;;;;;;;1.15;0.70;;;;;14.50;103851.00;;;;5030380;28;20211;-82
2021/12/18 05:26:35;;;;;;;0.80;0.50;;;;;14.40;103854.00;;;;5030018;28;20196;-82
2021/12/18 05:29:02;;;;;;;1.20;0.65;;;;;14.40;103849.00;;;;5030081;28;20219;-82
2021/12/18 05:31:29;;;;;;;0.95;0.60;;;;;14.40;103851.00;;;;5031326;28;20200;-82
2021/12/18 05:34:02;;;;;;;1.33;0.80;;;;;14.40;103856.00;;;;5030460;28;20192;-82
2021/12/18 05:36:36;;;;;;;0.70;0.35;;;;;14.40;103848.00;;;;5018126;28;20225;-82
2021/12/18 05:39:07;;;;;;;1.08;0.40;;;;;14.30;103846.00;;;;5028802;28;20208;-82
2021/12/18 05:41:36;;;;;;;1.40;0.70;;;;;14.30;103837.00;;;;5030562;28;20249;-81
2021/12/18 05:44:04;;;;;;;1.40;0.57;;;;;14.30;103838.00;;;;5029800;28;20188;-82
2021/12/18 05:46:32;;;;;;;0.82;0.43;;;;;14.30;103833.00;;;;5030899;28;20613;-82
2021/12/18 05:49:00;;;;;;;2.35;0.98;;;;;14.30;103829.00;;;;5029521;28;20216;-81
2021/12/18 05:51:27;;;;;;;1.40;0.82;;;;;14.30;103830.00;;;;5026172;28;20200;-82
2021/12/18 05:53:54;;;;;;;1.05;0.50;;;;;14.30;103836.00;;;;5016990;28;20193;-83
2021/12/18 05:56:22;;;;;;;1.50;0.65;;;;;14.30;103838.00;;;;5026316;28;20395;-82
2021/12/18 05:58:50;;;;;;;1.85;0.70;;;;;14.30;103836.00;;;;5028450;28;20192;-83
2021/12/18 06:01:19;;;;;;;1.00;0.50;;;;;14.30;103831.00;;;;5030072;28;20207;-84
2021/12/18 06:03:47;;;;;;;0.98;0.60;;;;;14.30;103826.00;;;;5030116;28;20216;-83
2021/12/18 06:06:14;;;;;;;1.30;0.57;;;;;14.30;103827.00;;;;5030184;28;20654;-82
2021/12/18 06:08:42;;;;;;;0.80;0.50;;;;;14.30;103823.00;;;;5030490;28;20192;-82
2021/12/18 06:11:13;;;;;;;1.67;0.60;;;;;14.20;103817.00;;;;5023706;28;20676;-83
2021/12/18 06:13:42;;;;;;;0.98;0.50;;;;;14.20;103821.00;;;;5029509;28;20827;-82
2021/12/18 06:16:11;;;;;;;1.15;0.50;;;;;14.20;103813.00;;;;5030057;28;20387;-83
2021/12/18 06:18:41;;;;;;;0.70;0.40;;;;;14.20;103818.00;;;;5029989;28;20196;-82
2021/12/18 06:21:09;;;;;;;1.20;0.57;;;;;14.20;103823.00;;;;5018232;28;20228;-83
2021/12/18 06:23:37;;;;;;;0.90;0.20;;;;;14.20;103816.00;;;;5020600;28;20196;-83
2021/12/18 06:26:04;;;;;;;1.05;0.60;;;;;14.10;103821.00;;;;5022201;28;20204;-83
2021/12/18 06:28:32;;;;;;;0.55;0.40;;;;;14.10;103826.00;;;;5023331;28;20215;-83
2021/12/18 06:31:00;;;;;;;0.80;0.40;;;;;14.10;103823.00;;;;5028653;28;20215;-83
2021/12/18 06:33:29;;;;;;;0.60;0.28;;;;;14.10;103833.00;;;;5030574;28;20200;-83
2021/12/18 06:35:59;;;;;;;0.95;0.55;;;;;14.10;103835.00;;;;5026213;28;20543;-82
2021/12/18 06:38:26;;;;;;;1.30;0.60;;;;;14.00;103834.00;;;;5030079;28;20231;-84
2021/12/18 06:40:54;;;;;;;0.73;0.35;;;;;14.00;103839.00;;;;5022197;28;20200;-84
2021/12/18 06:43:25;;;;;;;1.10;0.47;;;;;14.00;103835.00;;;;5029508;28;20216;-84
2021/12/18 06:45:53;;;;;;;0.55;0.38;;;;;14.00;103842.00;;;;5026458;28;21176;-83
2021/12/18 06:48:23;;;;;;;0.63;0.40;;;;;14.00;103845.00;;;;5024908;28;20228;-84
2021/12/18 06:51:27;;;;;;;1.02;0.40;;;;;13.90;103838.00;;;;5024501;28;20219;-84
2021/12/18 06:53:55;;;;;;;1.08;0.30;;;;;14.00;103846.00;;;;4981841;28;20721;-84
2021/12/18 06:59:31;;;;;;;0.55;0.30;;;;;14.00;103847.00;;;;5028700;28;20278;-85
2021/12/18 07:02:00;;;;;;;4.15;0.40;;;;;13.90;103840.00;;;;5023894;28;20287;-82
2021/12/18 07:04:27;;;;;;;0.40;0.10;;;;;13.80;103853.00;;;;5023459;28;20629;-82
2021/12/18 07:06:56;;;;;;;0.65;0.30;;;;;13.80;103855.00;;;;5017761;28;20184;-82
2021/12/18 07:09:23;;;;;;;0.70;0.30;;;;;13.80;103852.00;;;;5018479;28;20197;-81
2021/12/18 07:11:51;;;;;;;0.93;0.35;;;;;13.70;103858.00;;;;5025434;28;20201;-80
2021/12/18 07:14:18;;;;;;;0.93;0.32;;;;;13.70;103858.00;;;;5029605;28;20193;-82
2021/12/18 07:16:45;;;;;;;0.98;0.50;;;;;13.70;103856.00;;;;5022088;28;20199;-79
2021/12/18 07:19:13;;;;;;;1.05;0.35;;;;;13.60;103859.00;;;;5023002;28;20203;-80
2021/12/18 07:21:40;;;;;;;0.90;0.32;;;;;13.60;103862.00;;;;5028263;28;21072;-81
2021/12/18 07:24:09;;;;;;;1.02;0.65;;;;;13.60;103872.00;;;;5027465;28;20582;-81
2021/12/18 07:26:36;;;;;;;1.10;0.40;;;;;13.60;103868.00;;;;5028791;28;20203;-80
2021/12/18 07:29:04;;;;;;;0.50;0.20;;;;;13.50;103854.00;;;;5025897;28;20196;-81
2021/12/18 07:31:31;;;;;;;0.75;0.40;;;;;13.50;103849.00;;;;5027899;28;20235;-82
2021/12/18 07:33:58;;;;;;;1.13;0.68;;;;;13.50;103853.00;;;;5028418;28;20199;-82
2021/12/18 07:36:26;;;;;;;0.88;0.40;;;;;13.40;103848.00;;;;5027260;28;20566;-82
2021/12/18 07:38:53;;;;;;;1.00;0.30;;;;;13.40;103846.00;;;;5028432;28;20208;-82
2021/12/18 07:41:22;;;;;;;0.80;0.47;;;;;13.40;103852.00;;;;5027989;28;20207;-82
2021/12/18 07:43:49;;;;;;;0.93;0.43;;;;;13.30;103847.00;;;;5028794;28;20204;-80
2021/12/18 07:46:16;;;;;;;0.40;0.30;;;;;13.30;103855.00;;;;5028560;28;20205;-80
2021/12/18 07:48:44;;;;;;;1.10;0.52;;;;;13.30;103849.00;;;;5028866;28;20218;-81
2021/12/18 07:51:12;;;;;;;0.85;0.30;;;;;13.30;103857.00;;;;5026780;28;20270;-81
2021/12/18 07:53:39;;;;;;;0.60;0.30;;;;;13.30;103856.00;;;;5030703;28;20199;-80
2021/12/18 07:56:09;;;;;;;0.70;0.30;;;;;13.30;103853.00;;;;5032683;28;20196;-81
2021/12/18 07:58:39;;;;;;;3.42;0.55;;;;;13.30;103856.00;;;;5028759;28;20242;-80
2021/12/18 08:01:06;;;;;;;1.70;0.57;;;;;13.20;103854.00;;;;5028521;28;20204;-79
2021/12/18 08:03:34;;;;;;;0.65;0.50;;;;;13.20;103853.00;;;;5025022;28;20207;-80
2021/12/18 08:06:02;;;;;;;0.75;0.40;;;;;13.20;103852.00;;;;5023371;28;20204;-80
2021/12/18 08:08:30;;;;;;;0.65;0.30;;;;;13.20;103853.00;;;;5022966;28;20212;-81
2021/12/18 08:10:57;;;;;;;1.67;0.43;;;;;13.20;103850.00;;;;5027845;28;20750;-80
2021/12/18 08:13:25;;;;;;;0.85;0.38;;;;;13.10;103852.00;;;;5028045;28;20207;-80
2021/12/18 08:15:53;;;;;;;0.60;0.30;;;;;13.10;103841.00;;;;5028981;28;20204;-81
2021/12/18 08:18:20;;;;;;;0.68;0.43;;;;;13.10;103854.00;;;;5025877;28;20200;-80
2021/12/18 08:20:48;;;;;;;1.13;0.50;;;;;13.10;103853.00;;;;5027201;28;20196;-81
2021/12/18 08:23:15;;;;;;;0.38;0.20;;;;;13.10;103848.00;;;;5027645;28;20196;-81
2021/12/18 08:25:43;;;;;;;1.25;0.70;;;;;13.10;103850.00;;;;5016063;28;20205;-81
2021/12/18 08:28:10;;;;;;;1.05;0.47;;;;;13.10;103853.00;;;;5020078;28;20207;-81
2021/12/18 08:30:39;;;;;;;0.90;0.32;;;;;13.10;103851.00;;;;5022029;28;20327;-81
2021/12/18 08:33:14;;;;;;;0.60;0.30;;;;;13.00;103854.00;;;;5025118;28;20200;-81
2021/12/18 08:35:42;;;;;;;0.73;0.40;;;;;13.00;103848.00;;;;5025841;28;20947;-81
2021/12/18 08:38:09;;;;;;;0.80;0.50;;;;;13.00;103851.00;;;;5026213;28;20282;-81
2021/12/18 08:40:37;;;;;;;0.45;0.30;;;;;13.00;103849.00;;;;5024255;28;20208;-81
2021/12/18 08:43:04;;;;;;;0.57;0.40;;;;;13.00;103854.00;;;;5024523;28;20204;-81
2021/12/18 08:45:31;;;;;;;0.60;0.30;;;;;13.00;103843.00;;;;5025385;28;20209;-81
2021/12/18 08:47:59;;;;;;;0.60;0.38;;;;;13.00;103851.00;;;;5026788;28;20209;-81
2021/12/18 08:50:27;;;;;;;0.55;0.30;;;;;12.90;103853.00;;;;5026676;28;20239;-81
2021/12/18 08:52:55;;;;;;;4.45;0.40;;;;;12.90;103854.00;;;;5026745;28;20219;-81
2021/12/18 08:55:23;;;;;;;0.55;0.40;;;;;12.90;103858.00;;;;5026465;28;20211;-79
2021/12/18 08:57:52;;;;;;;1.00;0.60;;;;;12.90;103851.00;;;;5027028;28;20602;-79
2021/12/18 09:00:23;;;;;;;0.63;0.38;;;;;12.90;103862.00;;;;5025843;28;20201;-80
2021/12/18 09:02:54;;;;;;;0.80;0.40;;;;;12.90;103863.00;;;;5011422;28;20207;-79
2021/12/18 09:05:23;;;;;;;0.60;0.30;;;;;12.80;103854.00;;;;5026778;28;20279;-77
2021/12/18 09:07:51;;;;;;;0.50;0.35;;;;;12.80;103856.00;;;;5027139;28;20219;-78
2021/12/18 09:10:20;;;;;;;0.50;0.38;;;;;12.80;103849.00;;;;5026726;28;21130;-78
2021/12/18 09:12:48;;;;;;;0.77;0.32;;;;;12.80;103858.00;;;;5010650;28;20648;-78
2021/12/18 09:15:15;;;;;;;0.43;0.28;;;;;12.80;103853.00;;;;5026680;28;20211;-78
2021/12/18 09:17:43;;;;;;;1.48;0.15;;;;;12.80;103861.00;;;;5023909;28;20578;-78
2021/12/18 09:20:11;;;;;;;0.52;0.30;;;;;12.80;103858.00;;;;5030628;28;20207;-78
2021/12/18 09:22:38;;;;;;;0.38;0.20;;;;;12.90;103855.00;;;;5030002;28;20203;-78
2021/12/18 09:25:09;;;;;;;0.30;0.20;;;;;12.90;103861.00;;;;5029323;28;20196;-78
2021/12/18 09:27:37;;;;;;;0.70;0.32;;;;;12.90;103860.00;;;;5030198;28;20205;-77
2021/12/18 09:30:05;;;;;;;0.68;0.47;;;;;12.90;103863.00;;;;5029863;28;20196;-77
2021/12/18 09:32:33;;;;;;;1.45;0.70;;;;;13.00;103857.00;;;;5028910;28;20558;-77
2021/12/18 09:35:00;;;;;;;0.57;0.40;;;;;13.00;103863.00;;;;5014168;28;20682;-78
2021/12/18 09:37:27;;;;;;;0.40;0.20;;;;;13.00;103865.00;;;;5010970;28;20232;-77
2021/12/18 09:39:54;;;;;;;0.55;0.40;;;;;13.00;103856.00;;;;5028207;28;20205;-77
2021/12/18 09:42:24;;;;;;;0.47;0.30;;;;;13.00;103855.00;;;;5029887;28;20596;-77
2021/12/18 09:44:52;;;;;;;0.43;0.17;;;;;13.00;103856.00;;;;5030307;28;20614;-77
2021/12/18 09:47:20;;;;;;;0.40;0.20;;;;;13.00;103852.00;;;;5030171;28;20193;-78
2021/12/18 09:49:49;;;;;;;0.22;0.10;;;;;13.00;103857.00;;;;5030163;28;20220;-78
2021/12/18 09:52:17;;;;;;;0.20;0.10;;;;;13.00;103856.00;;;;5028619;28;20223;-78
2021/12/18 09:54:45;;;;;;;0.38;0.20;;;;;13.00;103857.00;;;;5029836;28;20189;-78
2021/12/18 09:57:13;;;;;;;0.95;0.20;;;;;13.00;103850.00;;;;5028145;28;20231;-79
2021/12/18 09:59:41;;;;;;;0.60;0.30;;;;;13.00;103851.00;;;;5018329;28;20201;-77
2021/12/18 10:02:09;;;;;;;0.30;0.25;;;;;13.00;103844.00;;;;5011278;28;20200;-81
2021/12/18 10:04:38;;;;;;;0.65;0.32;;;;;13.00;103855.00;;;;5012692;28;20201;-79
2021/12/18 10:07:17;;;;;;;0.55;0.35;;;;;12.90;103849.00;;;;5029839;28;20222;-79
2021/12/18 10:09:44;;;;;;;0.40;0.20;;;;;13.00;103841.00;;;;5029705;28;20200;-80
2021/12/18 10:12:17;;;;;;;0.22;0.20;;;;;12.90;103849.00;;;;5028467;28;20220;-79
2021/12/18 10:14:48;;;;;;;0.50;0.32;;;;;13.00;103848.00;;;;5027914;28;20196;-80
2021/12/18 10:17:37;;;;;;;0.93;0.40;;;;;12.90;103844.00;;;;5026815;28;20192;-80
2021/12/18 10:20:20;;;;;;;0.80;0.40;;;;;12.90;103845.00;;;;5023651;28;20192;-84
2021/12/18 10:22:48;;;;;;;0.68;0.40;;;;;13.00;103843.00;;;;5022675;28;20209;-82
2021/12/18 10:25:18;;;;;;;0.88;0.25;;;;;13.10;103842.00;;;;5024008;28;20201;-81
2021/12/18 10:27:57;;;;;;;0.90;0.40;;;;;13.00;103844.00;;;;5027130;28;20774;-82
2021/12/18 10:30:25;;;;;;;0.68;0.50;;;;;13.10;103836.00;;;;5018442;28;20203;-83
2021/12/18 10:32:58;;;;;;;0.43;0.38;;;;;13.10;103832.00;;;;5027692;28;20189;-84
2021/12/18 10:35:41;;;;;;;0.80;0.52;;;;;13.10;103841.00;;;;5027445;28;20212;-82
2021/12/18 10:38:10;;;;;;;0.77;0.43;;;;;13.20;103842.00;;;;5025391;28;20196;-82
2021/12/18 10:40:45;;;;;;;0.30;0.20;;;;;13.10;103833.00;;;;5029615;28;20193;-83
2021/12/18 10:43:15;;;;;;;0.70;0.50;;;;;13.20;103840.00;;;;5009429;28;20209;-82
2021/12/18 10:45:44;;;;;;;0.90;0.70;;;;;13.20;103835.00;;;;5008255;28;20200;-83
2021/12/18 10:48:15;;;;;;;0.70;0.45;;;;;13.20;103828.00;;;;5009967;28;20221;-82
2021/12/18 10:50:45;;;;;;;1.00;0.63;;;;;13.20;103834.00;;;;5009566;28;20331;-86
2021/12/18 10:53:15;;;;;;;0.80;0.55;;;;;13.20;103832.00;;;;5020754;28;20189;-86
2021/12/18 10:55:49;;;;;;;0.70;0.40;;;;;13.20;103828.00;;;;5029339;28;20191;-84
2021/12/18 10:58:19;;;;;;;0.98;0.57;;;;;13.30;103824.00;;;;5028972;28;20216;-85
2021/12/18 11:00:55;;;;;;;0.57;0.40;;;;;13.30;103824.00;;;;5024518;28;20212;-84
2021/12/18 11:03:31;;;;;;;1.15;0.63;;;;;13.30;103825.00;;;;5028935;28;20295;-85
2021/12/18 11:06:14;;;;;;;0.80;0.50;;;;;13.30;103830.00;;;;5029112;28;20214;-83
2021/12/18 11:09:05;;;;;;;0.50;0.30;;;;;13.20;103821.00;;;;5029391;28;20734;-84
2021/12/18 11:14:25;;;;;;;0.60;0.32;;;;;13.30;103822.00;;;;5029308;28;20211;-83
2021/12/18 11:16:56;;;;;;;0.75;0.57;;;;;13.30;103830.00;;;;5018696;28;20215;-81
2021/12/18 11:19:25;;;;;;;0.50;0.40;;;;;13.30;103826.00;;;;5027081;28;20240;-82
2021/12/18 11:21:54;;;;;;;0.85;0.47;;;;;13.30;103818.00;;;;5027296;28;20208;-82
2021/12/18 11:24:28;;;;;;;0.90;0.60;;;;;13.40;103820.00;;;;5026593;28;20224;-81
2021/12/18 11:26:59;;;;;;;0.50;0.50;;;;;13.30;103812.00;;;;5027630;28;20211;-82
2021/12/18 11:29:32;;;;;;;0.75;0.40;;;;;13.40;103808.00;;;;5027930;28;20192;-82
2021/12/18 11:32:01;;;;;;;0.90;0.57;;;;;13.40;103814.00;;;;5025735;28;20706;-82
2021/12/18 11:34:29;;;;;;;1.08;0.40;;;;;13.50;103807.00;;;;5018222;28;20251;-80
2021/12/18 11:36:59;;;;;;;0.60;0.40;;;;;13.50;103802.00;;;;5027787;28;20195;-83
2021/12/18 11:39:31;;;;;;;0.98;0.55;;;;;13.40;103797.00;;;;5028045;28;20196;-80
2021/12/18 11:41:59;;;;;;;0.95;0.52;;;;;13.50;103797.00;;;;5027514;28;20690;-80
2021/12/18 11:44:29;;;;;;;1.55;0.85;;;;;13.40;103793.00;;;;5027995;28;20404;-80
2021/12/18 11:46:58;;;;;;;1.33;0.88;;;;;13.40;103794.00;;;;5027739;28;20197;-81
2021/12/18 11:49:43;;;;;;;1.20;0.45;;;;;13.40;103795.00;;;;5024055;28;20220;-80
2021/12/18 11:52:10;;;;;;;0.55;0.50;;;;;13.50;103793.00;;;;5027462;28;20224;-81
2021/12/18 11:54:49;;;;;;;0.85;0.55;;;;;13.40;103793.00;;;;5027767;28;20283;-82
2021/12/18 11:57:41;;;;;;;1.05;0.57;;;;;13.40;103796.00;;;;5027649;28;20616;-81
2021/12/18 12:00:31;;;;;;;1.02;0.52;;;;;13.50;103779.00;;;;5024365;28;20200;-81
2021/12/18 12:03:00;;;;;;;0.80;0.40;;;;;13.50;103784.00;;;;5022110;28;20205;-80
2021/12/18 12:05:36;;;;;;;1.08;0.63;;;;;13.50;103782.00;;;;5027805;28;20185;-81
2021/12/18 12:08:21;;;;;;;0.73;0.50;;;;;13.50;103775.00;;;;5026759;28;20203;-82
2021/12/18 12:11:17;;;;;;;1.00;0.60;;;;;13.50;103781.00;;;;5028190;28;20188;-79
2021/12/18 12:13:59;;;;;;;1.15;0.65;;;;;13.50;103789.00;;;;5021546;28;20596;-77
2021/12/18 12:17:03;;;;;;;0.68;0.40;;;;;13.50;103787.00;;;;5026979;28;20254;-77
2021/12/18 12:19:56;;;;;;;1.52;0.60;;;;;13.60;103780.00;;;;5017890;28;20306;-78
2021/12/18 12:22:39;;;;;;;0.70;0.40;;;;;13.60;103786.00;;;;5027447;28;20192;-78
2021/12/18 12:25:08;;;;;;;1.33;0.85;;;;;13.70;103777.00;;;;5024242;28;20192;-78
2021/12/18 12:27:38;;;;;;;0.65;0.50;;;;;13.70;103780.00;;;;5020342;28;20205;-78
2021/12/18 12:30:09;;;;;;;0.82;0.50;;;;;13.70;103777.00;;;;5028731;28;20211;-78
2021/12/18 12:32:37;;;;;;;1.10;0.50;;;;;13.80;103779.00;;;;5024606;28;20219;-78
2021/12/18 12:35:08;;;;;;;1.83;0.90;;;;;13.80;103775.00;;;;5019889;28;20239;-77
2021/12/18 12:37:40;;;;;;;0.85;0.68;;;;;13.80;103767.00;;;;5025742;28;20203;-78
2021/12/18 12:40:11;;;;;;;1.10;0.88;;;;;13.90;103770.00;;;;5025904;28;20200;-77
2021/12/18 12:42:40;;;;;;;0.77;0.55;;;;;13.90;103763.00;;;;5027032;28;20196;-78
2021/12/18 12:45:13;;;;;;;0.90;0.60;;;;;13.90;103769.00;;;;5025691;28;20224;-78
2021/12/18 12:47:40;;;;;;;0.77;0.57;;;;;14.00;103761.00;;;;5028088;28;20250;-79
2021/12/18 12:50:27;;;;;;;1.50;1.20;;;;;13.80;103757.00;;;;5025266;28;20449;-78
2021/12/18 12:52:57;;;;;;;0.90;0.65;;;;;14.10;103754.00;;;;5025330;28;20215;-78